KOWB Airport (Owensboro-Daviess County Rgnl) Information

FAA: OWB - ICAO: KOWB

KOWB Airport Location

State Kentucky
County Daviess
City Owensboro
KOWB Airport is 3 miles southwest of Owensboro, KY.
Latitude 37-44-19.8030N
Longitude 087-10-00.5828W
Elevation 407ft

KOWB Airport METARs

METAR KOWB 240956Z AUTO 00000KT 7SM CLR 09/08 A3011 RMK AO2 SLP197 T00940083
Altimeter 30.11"
Temperature 9.4°C (48.9°F)
Wind 0° at 0KT
Clouds Skies are clear.
Visibility 7.0mi
Time observed: 2021-09-24T09:56:00Z

KOWB Airport Details

Status Operational
Activation December 1949
Ownership Public
Usage Public
Chart ST LOUIS
ATC on-site Yes
Beacon schedule sunset-sunrise
Beacon color clear green

KOWB Airport Contacts

Owner OWENSBORO CITY & DAVIESS COUNTY
Owner address 2200 AIRPORT ROAD, OWENSBORO, KY 42303
Owner phone 270-685-4179
Manager DANNY HILL
Manager address 709 AIRPORT ROAD, MT. STERLING, KY 40353
Manager phone 859-498-1000

KOWB Airport (Owensboro-Daviess County Rgnl) Radio Frequencies

KOWB (Airport) Radio Frequencies

UNICOM 122.95
Common traffic advisory frequency (CTAF) 120.7